createdAt,value
2022-11-21T00:02:27.052Z,9.00
2022-11-21T00:07:29.495Z,9.00
2022-11-21T00:12:31.822Z,9.00
2022-11-21T00:17:34.086Z,9.00
2022-11-21T00:22:36.238Z,9.00
2022-11-21T00:27:38.630Z,9.00
2022-11-21T00:32:40.810Z,9.10
2022-11-21T00:37:43.052Z,9.10
2022-11-21T00:42:45.250Z,9.10
2022-11-21T00:47:47.400Z,9.10
2022-11-21T00:52:49.580Z,9.10
2022-11-21T00:57:51.950Z,9.10
2022-11-21T01:02:55.298Z,9.10
2022-11-21T01:07:57.413Z,9.10
2022-11-21T01:12:59.563Z,9.10
2022-11-21T01:18:01.715Z,9.00
2022-11-21T01:23:03.842Z,9.00
2022-11-21T01:28:06.009Z,9.00
2022-11-21T01:33:08.205Z,9.00
2022-11-21T01:38:10.343Z,9.10
2022-11-21T01:43:15.510Z,9.10
2022-11-21T01:48:18.093Z,9.10
2022-11-21T01:53:20.416Z,9.10
2022-11-21T01:58:24.013Z,9.10
2022-11-21T02:03:31.601Z,9.10
2022-11-21T02:08:33.939Z,9.10
2022-11-21T02:13:36.098Z,9.20
2022-11-21T02:18:38.475Z,9.20
2022-11-21T02:23:50.578Z,9.20
2022-11-21T02:28:52.836Z,9.20
2022-11-21T02:33:55.074Z,9.30
2022-11-21T02:38:57.331Z,9.30
2022-11-21T02:44:13.439Z,9.30
2022-11-21T02:49:16.872Z,9.30
2022-11-21T02:54:19.016Z,9.30
2022-11-21T02:59:21.174Z,9.30
2022-11-21T03:04:23.304Z,9.30
2022-11-21T03:09:25.476Z,9.30
2022-11-21T03:14:27.931Z,9.30
2022-11-21T03:19:30.531Z,9.40
2022-11-21T03:24:32.791Z,9.40
2022-11-21T03:29:35.054Z,9.40
2022-11-21T03:34:37.407Z,9.50
2022-11-21T03:39:39.613Z,9.50
2022-11-21T03:44:42.352Z,9.50
2022-11-21T03:49:44.574Z,9.50
2022-11-21T03:54:46.787Z,9.50
2022-11-21T03:59:49.041Z,9.60
2022-11-21T04:04:51.344Z,9.70
2022-11-21T04:09:53.586Z,9.70
2022-11-21T04:14:55.823Z,9.70
2022-11-21T04:19:57.999Z,9.80
2022-11-21T04:25:00.234Z,9.80
2022-11-21T04:30:02.579Z,9.90
2022-11-21T04:35:05.193Z,9.80
2022-11-21T04:40:07.872Z,9.80
2022-11-21T04:45:11.078Z,9.80
2022-11-21T04:50:18.133Z,9.90
2022-11-21T04:55:21.534Z,10.00
2022-11-21T05:00:24.710Z,10.00
2022-11-21T05:05:27.108Z,10.10
2022-11-21T05:10:29.337Z,10.20
2022-11-21T05:15:31.464Z,10.30
2022-11-21T05:20:36.861Z,10.30
2022-11-21T05:25:40.477Z,10.30
2022-11-21T05:30:42.681Z,10.40
2022-11-21T05:35:44.907Z,10.30
2022-11-21T05:40:47.143Z,10.40
2022-11-21T05:45:50.396Z,10.40
2022-11-21T05:50:52.617Z,10.40
2022-11-21T05:55:54.859Z,10.40
2022-11-21T06:01:00.078Z,10.40
2022-11-21T06:06:04.036Z,10.40
2022-11-21T06:11:08.386Z,10.40
2022-11-21T06:16:15.811Z,10.40
2022-11-21T06:21:20.664Z,10.50
2022-11-21T06:26:25.745Z,10.50
2022-11-21T06:31:28.056Z,10.50
2022-11-21T06:36:30.296Z,10.60
2022-11-21T06:41:32.662Z,10.60
2022-11-21T06:46:34.893Z,10.60
2022-11-21T06:51:37.112Z,10.70
2022-11-21T06:56:39.262Z,10.70
2022-11-21T07:01:41.437Z,10.70
2022-11-21T07:06:43.866Z,10.80
2022-11-21T07:11:46.091Z,10.80
2022-11-21T07:16:48.192Z,10.80
2022-11-21T07:21:50.296Z,10.80
2022-11-21T07:26:52.384Z,10.80
2022-11-21T07:31:55.268Z,10.90
2022-11-21T07:36:57.403Z,10.90
2022-11-21T07:41:59.524Z,11.00
2022-11-21T07:47:01.669Z,11.00
2022-11-21T07:52:03.970Z,11.10
2022-11-21T07:57:06.187Z,11.10
2022-11-21T08:02:17.854Z,11.20
2022-11-21T08:07:21.831Z,11.20
2022-11-21T08:12:24.107Z,11.30
2022-11-21T08:17:27.096Z,11.40
2022-11-21T08:22:29.268Z,11.40
2022-11-21T08:27:31.514Z,11.50
2022-11-21T08:32:34.195Z,11.60
2022-11-21T08:37:36.432Z,12.00
2022-11-21T08:42:38.589Z,12.20
2022-11-21T08:47:40.782Z,12.00
2022-11-21T08:52:42.937Z,12.00
2022-11-21T08:57:45.148Z,11.80
2022-11-21T09:02:47.280Z,11.80
2022-11-21T09:07:57.237Z,11.70
2022-11-21T09:13:00.102Z,11.60
2022-11-21T09:18:03.406Z,11.50
2022-11-21T09:23:07.016Z,11.40
2022-11-21T09:28:11.177Z,11.40
2022-11-21T09:33:16.932Z,11.40
2022-11-21T09:38:23.792Z,11.40
2022-11-21T09:43:36.128Z,11.40
2022-11-21T09:49:00.556Z,11.40
2022-11-21T09:54:29.113Z,11.50
2022-11-21T09:59:37.309Z,11.50
2022-11-21T10:04:39.611Z,11.60
2022-11-21T10:10:07.268Z,11.60
2022-11-21T10:15:38.211Z,11.70
2022-11-21T10:20:46.443Z,11.60
2022-11-21T10:25:57.506Z,11.50
2022-11-21T10:31:00.213Z,11.40
2022-11-21T10:36:26.955Z,11.70
2022-11-21T10:41:35.044Z,12.10
2022-11-21T10:46:37.159Z,12.00
2022-11-21T10:52:11.200Z,11.80
2022-11-21T10:57:13.271Z,11.90
2022-11-21T11:02:15.335Z,12.10
2022-11-21T11:07:26.921Z,12.20
2022-11-21T11:12:51.558Z,12.00
2022-11-21T11:18:09.195Z,11.90
2022-11-21T11:23:25.911Z,12.00
2022-11-21T11:28:36.546Z,12.00
2022-11-21T11:33:41.468Z,12.00
2022-11-21T11:39:05.695Z,11.40
2022-11-21T11:44:36.256Z,11.20
2022-11-21T11:50:11.815Z,11.60
2022-11-21T11:55:26.836Z,11.70
2022-11-21T12:00:40.684Z,12.00
2022-11-21T12:06:10.033Z,12.10
2022-11-21T12:11:33.885Z,12.20
2022-11-21T12:16:37.003Z,12.20
2022-11-21T12:21:39.314Z,12.20
2022-11-21T12:26:44.525Z,12.20
2022-11-21T12:32:24.159Z,12.40
2022-11-21T12:37:32.534Z,12.20
2022-11-21T12:43:18.704Z,11.30
2022-11-21T12:49:08.659Z,9.90
2022-11-21T12:54:32.219Z,9.50
2022-11-21T13:00:13.381Z,9.50
2022-11-21T13:05:39.074Z,10.00
2022-11-21T13:11:16.758Z,10.60
2022-11-21T13:16:39.840Z,10.70
2022-11-21T13:21:46.108Z,10.70
2022-11-21T13:26:52.755Z,10.40
2022-11-21T13:31:55.235Z,9.70
2022-11-21T13:36:57.560Z,9.20
2022-11-21T13:42:20.680Z,9.50
2022-11-21T13:47:26.286Z,10.20
2022-11-21T13:52:57.690Z,10.50
2022-11-21T13:58:34.983Z,10.60
2022-11-21T14:04:04.669Z,10.80
2022-11-21T14:09:23.854Z,10.40
2022-11-21T14:14:38.232Z,10.10
2022-11-21T14:19:41.618Z,9.70
2022-11-21T14:24:44.774Z,9.50
2022-11-21T14:29:47.122Z,9.60
2022-11-21T14:34:49.462Z,9.80
2022-11-21T14:39:56.903Z,9.60
2022-11-21T14:45:23.902Z,9.50
2022-11-21T14:50:33.550Z,9.70
2022-11-21T14:55:35.748Z,9.80
2022-11-21T15:00:59.675Z,9.70
2022-11-21T15:06:07.943Z,9.90
2022-11-21T15:11:12.069Z,9.90
2022-11-21T15:16:14.653Z,9.90
2022-11-21T15:21:17.087Z,9.60
2022-11-21T15:26:33.662Z,9.20
2022-11-21T15:31:36.080Z,9.10
2022-11-21T15:36:38.680Z,9.00
2022-11-21T15:41:40.988Z,8.90
2022-11-21T15:46:43.331Z,8.90
2022-11-21T15:57:10.647Z,8.70
2022-11-21T16:02:14.220Z,8.90
2022-11-21T16:07:16.429Z,9.00
2022-11-21T16:12:18.636Z,8.80
2022-11-21T16:17:21.395Z,8.70
2022-11-21T16:22:23.659Z,8.60
2022-11-21T16:27:25.946Z,8.50
2022-11-21T16:32:28.389Z,8.50
2022-11-21T16:37:34.283Z,8.50
2022-11-21T16:42:36.792Z,8.40
2022-11-21T16:47:41.936Z,8.40
2022-11-21T16:52:46.477Z,8.10
2022-11-21T16:57:49.508Z,8.30
2022-11-21T17:02:52.927Z,8.40
2022-11-21T17:07:55.180Z,8.40
2022-11-21T17:12:57.425Z,8.40
2022-11-21T17:18:01.581Z,8.40
2022-11-21T17:23:03.959Z,8.40
2022-11-21T17:28:06.294Z,8.30
2022-11-21T17:33:08.441Z,8.30
2022-11-21T17:38:10.641Z,8.30
2022-11-21T17:43:12.871Z,8.20
2022-11-21T17:48:15.088Z,8.20
2022-11-21T17:53:17.334Z,8.10
2022-11-21T17:58:19.647Z,8.10
2022-11-21T18:03:22.165Z,8.10
2022-11-21T18:08:24.454Z,8.10
2022-11-21T18:13:28.055Z,8.10
2022-11-21T18:18:31.336Z,8.10
2022-11-21T18:23:34.070Z,8.00
2022-11-21T18:28:36.279Z,7.90
2022-11-21T18:33:39.271Z,7.70
2022-11-21T18:38:54.897Z,7.60
2022-11-21T18:44:04.416Z,7.50
2022-11-21T18:49:08.102Z,7.50
2022-11-21T18:54:11.325Z,7.60
2022-11-21T18:59:13.565Z,7.50
2022-11-21T19:04:16.014Z,7.50
2022-11-21T19:09:18.578Z,7.50
2022-11-21T19:14:20.809Z,7.50
2022-11-21T19:19:38.509Z,7.50
2022-11-21T19:24:40.711Z,7.50
2022-11-21T19:29:42.904Z,7.50
2022-11-21T19:34:45.139Z,7.60
2022-11-21T19:39:47.327Z,7.60
2022-11-21T19:44:49.699Z,7.60
2022-11-21T19:49:53.903Z,7.50
2022-11-21T19:54:56.002Z,7.60
2022-11-21T19:59:58.477Z,7.60
2022-11-21T20:05:00.557Z,7.60
2022-11-21T20:10:02.902Z,7.60
2022-11-21T20:15:05.401Z,7.60
2022-11-21T20:20:08.447Z,7.60
2022-11-21T20:25:10.660Z,7.60
2022-11-21T20:30:13.191Z,7.60
2022-11-21T20:35:15.856Z,7.70
2022-11-21T20:40:18.218Z,7.70
2022-11-21T20:51:59.556Z,7.70
2022-11-21T20:56:06.982Z,7.80
2022-11-21T21:01:13.076Z,7.90
2022-11-21T21:06:16.243Z,8.00
2022-11-21T21:11:49.646Z,7.90
2022-11-21T21:16:43.780Z,7.80
2022-11-21T21:21:47.078Z,7.80
2022-11-21T21:26:49.446Z,7.80
2022-11-21T21:31:52.993Z,7.80
2022-11-21T21:36:55.360Z,7.90
2022-11-21T21:41:57.620Z,7.90
2022-11-21T21:46:59.803Z,7.80
2022-11-21T21:52:02.172Z,7.80
2022-11-21T21:57:04.428Z,7.80
2022-11-21T22:02:07.216Z,7.80
2022-11-21T22:07:09.447Z,7.90
2022-11-21T22:12:11.672Z,8.00
2022-11-21T22:17:13.776Z,8.00
2022-11-21T22:22:15.877Z,8.10
2022-11-21T22:27:17.995Z,8.00
2022-11-21T22:32:20.215Z,8.10
2022-11-21T22:37:22.493Z,8.20
2022-11-21T22:42:24.652Z,8.30
2022-11-21T22:47:26.846Z,8.40
2022-11-21T22:52:29.076Z,8.40
2022-11-21T22:57:34.519Z,8.50
2022-11-21T23:02:37.021Z,8.60
2022-11-21T23:07:39.322Z,8.80
2022-11-21T23:12:41.502Z,8.90
2022-11-21T23:17:47.127Z,8.80
2022-11-21T23:22:51.958Z,8.70
2022-11-21T23:27:54.180Z,8.60
2022-11-21T23:32:56.349Z,8.60
2022-11-21T23:37:58.436Z,8.20
2022-11-21T23:43:00.633Z,8.10
2022-11-21T23:48:02.815Z,8.00
2022-11-21T23:53:04.933Z,8.00
2022-11-21T23:58:07.009Z,8.00
